sensor_id;sensor_type;location;lat;lon;timestamp;P1;durP1;ratioP1;P2;durP2;ratioP2
33347;SDS011;19707;51.158;17.124;2022-07-30T00:02:51;9.40;;;2.42;;
33347;SDS011;19707;51.158;17.124;2022-07-30T00:05:52;7.35;;;2.75;;
33347;SDS011;19707;51.158;17.124;2022-07-30T00:08:54;3.02;;;1.92;;
33347;SDS011;19707;51.158;17.124;2022-07-30T00:11:55;6.40;;;2.50;;
33347;SDS011;19707;51.158;17.124;2022-07-30T00:14:57;3.40;;;2.20;;
33347;SDS011;19707;51.158;17.124;2022-07-30T00:17:58;8.95;;;2.55;;
33347;SDS011;19707;51.158;17.124;2022-07-30T00:21:00;3.92;;;2.22;;
33347;SDS011;19707;51.158;17.124;2022-07-30T00:24:02;6.97;;;2.10;;
33347;SDS011;19707;51.158;17.124;2022-07-30T00:27:05;3.33;;;2.40;;
33347;SDS011;19707;51.158;17.124;2022-07-30T00:30:06;5.20;;;2.80;;
33347;SDS011;19707;51.158;17.124;2022-07-30T00:33:09;7.00;;;2.55;;
33347;SDS011;19707;51.158;17.124;2022-07-30T00:36:10;4.80;;;2.47;;
33347;SDS011;19707;51.158;17.124;2022-07-30T00:39:11;6.17;;;2.55;;
33347;SDS011;19707;51.158;17.124;2022-07-30T00:42:12;5.60;;;2.70;;
33347;SDS011;19707;51.158;17.124;2022-07-30T00:45:14;5.85;;;2.70;;
33347;SDS011;19707;51.158;17.124;2022-07-30T00:48:17;5.85;;;2.85;;
33347;SDS011;19707;51.158;17.124;2022-07-30T00:51:18;7.75;;;2.40;;
33347;SDS011;19707;51.158;17.124;2022-07-30T00:54:20;6.87;;;2.40;;
33347;SDS011;19707;51.158;17.124;2022-07-30T00:57:22;5.10;;;2.47;;
33347;SDS011;19707;51.158;17.124;2022-07-30T01:00:24;6.58;;;2.47;;
33347;SDS011;19707;51.158;17.124;2022-07-30T01:03:26;3.90;;;2.00;;
33347;SDS011;19707;51.158;17.124;2022-07-30T01:06:27;6.60;;;2.55;;
33347;SDS011;19707;51.158;17.124;2022-07-30T01:09:29;3.83;;;2.90;;
33347;SDS011;19707;51.158;17.124;2022-07-30T01:12:30;4.50;;;2.58;;
33347;SDS011;19707;51.158;17.124;2022-07-30T01:15:32;8.25;;;2.80;;
33347;SDS011;19707;51.158;17.124;2022-07-30T01:18:35;2.62;;;2.35;;
33347;SDS011;19707;51.158;17.124;2022-07-30T01:21:59;6.62;;;2.75;;
33347;SDS011;19707;51.158;17.124;2022-07-30T01:28:20;6.75;;;2.67;;
33347;SDS011;19707;51.158;17.124;2022-07-30T01:31:28;5.28;;;2.30;;
33347;SDS011;19707;51.158;17.124;2022-07-30T01:34:30;7.83;;;2.45;;
33347;SDS011;19707;51.158;17.124;2022-07-30T01:37:34;4.40;;;2.70;;
33347;SDS011;19707;51.158;17.124;2022-07-30T01:40:37;3.45;;;2.30;;
33347;SDS011;19707;51.158;17.124;2022-07-30T01:43:39;4.78;;;2.42;;
33347;SDS011;19707;51.158;17.124;2022-07-30T01:46:42;3.35;;;2.55;;
33347;SDS011;19707;51.158;17.124;2022-07-30T01:49:48;4.60;;;2.50;;
33347;SDS011;19707;51.158;17.124;2022-07-30T01:52:47;5.75;;;2.55;;
33347;SDS011;19707;51.158;17.124;2022-07-30T01:58:54;8.50;;;2.60;;
33347;SDS011;19707;51.158;17.124;2022-07-30T02:01:57;8.48;;;2.52;;
33347;SDS011;19707;51.158;17.124;2022-07-30T02:04:59;5.30;;;2.40;;
33347;SDS011;19707;51.158;17.124;2022-07-30T02:11:15;6.58;;;2.85;;
33347;SDS011;19707;51.158;17.124;2022-07-30T02:14:22;6.17;;;2.90;;
33347;SDS011;19707;51.158;17.124;2022-07-30T02:17:29;5.03;;;2.30;;
33347;SDS011;19707;51.158;17.124;2022-07-30T02:20:34;6.10;;;2.25;;
33347;SDS011;19707;51.158;17.124;2022-07-30T02:23:40;6.45;;;2.65;;
33347;SDS011;19707;51.158;17.124;2022-07-30T02:26:44;6.58;;;2.47;;
33347;SDS011;19707;51.158;17.124;2022-07-30T02:29:49;4.42;;;2.47;;
33347;SDS011;19707;51.158;17.124;2022-07-30T02:32:53;5.05;;;2.58;;
33347;SDS011;19707;51.158;17.124;2022-07-30T02:35:57;5.30;;;2.60;;
33347;SDS011;19707;51.158;17.124;2022-07-30T02:39:00;5.00;;;2.67;;
33347;SDS011;19707;51.158;17.124;2022-07-30T02:42:03;4.67;;;2.83;;
33347;SDS011;19707;51.158;17.124;2022-07-30T02:45:06;6.15;;;3.33;;
33347;SDS011;19707;51.158;17.124;2022-07-30T02:48:10;4.28;;;2.77;;
33347;SDS011;19707;51.158;17.124;2022-07-30T02:51:17;4.90;;;2.87;;
33347;SDS011;19707;51.158;17.124;2022-07-30T02:54:19;4.62;;;2.47;;
33347;SDS011;19707;51.158;17.124;2022-07-30T02:57:21;6.08;;;2.42;;
33347;SDS011;19707;51.158;17.124;2022-07-30T03:00:23;8.18;;;3.20;;
33347;SDS011;19707;51.158;17.124;2022-07-30T03:03:25;3.75;;;2.60;;
33347;SDS011;19707;51.158;17.124;2022-07-30T03:06:29;5.10;;;2.95;;
33347;SDS011;19707;51.158;17.124;2022-07-30T03:09:31;5.67;;;2.72;;
33347;SDS011;19707;51.158;17.124;2022-07-30T03:12:33;4.90;;;2.85;;
33347;SDS011;19707;51.158;17.124;2022-07-30T03:15:35;4.20;;;2.45;;
33347;SDS011;19707;51.158;17.124;2022-07-30T03:18:37;9.25;;;3.20;;
33347;SDS011;19707;51.158;17.124;2022-07-30T03:21:41;4.20;;;2.60;;
33347;SDS011;19707;51.158;17.124;2022-07-30T03:24:43;3.22;;;2.27;;
33347;SDS011;19707;51.158;17.124;2022-07-30T03:27:45;5.28;;;2.50;;
33347;SDS011;19707;51.158;17.124;2022-07-30T03:30:49;9.55;;;2.30;;
33347;SDS011;19707;51.158;17.124;2022-07-30T03:33:52;5.33;;;2.37;;
33347;SDS011;19707;51.158;17.124;2022-07-30T03:36:54;6.08;;;2.60;;
33347;SDS011;19707;51.158;17.124;2022-07-30T03:39:57;2.83;;;2.25;;
33347;SDS011;19707;51.158;17.124;2022-07-30T03:42:59;4.12;;;2.83;;
33347;SDS011;19707;51.158;17.124;2022-07-30T03:46:03;4.83;;;2.22;;
33347;SDS011;19707;51.158;17.124;2022-07-30T03:49:07;6.37;;;2.60;;
33347;SDS011;19707;51.158;17.124;2022-07-30T03:52:10;5.22;;;2.27;;
33347;SDS011;19707;51.158;17.124;2022-07-30T03:55:13;11.70;;;3.58;;
33347;SDS011;19707;51.158;17.124;2022-07-30T03:58:16;6.83;;;2.85;;
33347;SDS011;19707;51.158;17.124;2022-07-30T04:01:18;7.00;;;3.02;;
33347;SDS011;19707;51.158;17.124;2022-07-30T04:04:22;4.30;;;2.58;;
33347;SDS011;19707;51.158;17.124;2022-07-30T04:07:24;5.95;;;2.65;;
33347;SDS011;19707;51.158;17.124;2022-07-30T04:10:26;6.10;;;2.87;;
33347;SDS011;19707;51.158;17.124;2022-07-30T04:13:27;6.08;;;2.20;;
33347;SDS011;19707;51.158;17.124;2022-07-30T04:16:42;6.53;;;2.65;;
33347;SDS011;19707;51.158;17.124;2022-07-30T04:19:48;4.62;;;2.08;;
33347;SDS011;19707;51.158;17.124;2022-07-30T04:22:52;6.47;;;2.42;;
33347;SDS011;19707;51.158;17.124;2022-07-30T04:25:54;4.70;;;2.20;;
33347;SDS011;19707;51.158;17.124;2022-07-30T04:28:56;4.12;;;2.37;;
33347;SDS011;19707;51.158;17.124;2022-07-30T04:31:59;5.15;;;2.50;;
33347;SDS011;19707;51.158;17.124;2022-07-30T04:35:01;5.47;;;2.65;;
33347;SDS011;19707;51.158;17.124;2022-07-30T04:38:03;7.28;;;2.37;;
33347;SDS011;19707;51.158;17.124;2022-07-30T04:41:05;3.40;;;2.30;;
33347;SDS011;19707;51.158;17.124;2022-07-30T04:44:07;3.17;;;2.25;;
33347;SDS011;19707;51.158;17.124;2022-07-30T04:47:08;6.08;;;2.30;;
33347;SDS011;19707;51.158;17.124;2022-07-30T04:50:10;3.62;;;2.42;;
33347;SDS011;19707;51.158;17.124;2022-07-30T04:53:13;7.37;;;2.20;;
33347;SDS011;19707;51.158;17.124;2022-07-30T04:56:17;5.40;;;2.27;;
33347;SDS011;19707;51.158;17.124;2022-07-30T04:59:22;3.50;;;2.05;;
33347;SDS011;19707;51.158;17.124;2022-07-30T05:02:25;4.08;;;2.27;;
33347;SDS011;19707;51.158;17.124;2022-07-30T05:05:30;7.00;;;2.50;;
33347;SDS011;19707;51.158;17.124;2022-07-30T05:08:33;5.00;;;2.35;;
33347;SDS011;19707;51.158;17.124;2022-07-30T05:14:39;6.35;;;2.20;;
33347;SDS011;19707;51.158;17.124;2022-07-30T05:17:43;3.85;;;2.30;;
33347;SDS011;19707;51.158;17.124;2022-07-30T05:20:45;2.58;;;1.98;;
33347;SDS011;19707;51.158;17.124;2022-07-30T05:23:46;3.77;;;2.20;;
33347;SDS011;19707;51.158;17.124;2022-07-30T05:26:48;3.55;;;2.55;;
33347;SDS011;19707;51.158;17.124;2022-07-30T05:29:50;7.60;;;2.30;;
33347;SDS011;19707;51.158;17.124;2022-07-30T05:32:51;4.05;;;2.08;;
33347;SDS011;19707;51.158;17.124;2022-07-30T05:35:53;4.60;;;2.17;;
33347;SDS011;19707;51.158;17.124;2022-07-30T05:38:54;11.03;;;2.60;;
33347;SDS011;19707;51.158;17.124;2022-07-30T05:41:56;4.37;;;2.80;;
33347;SDS011;19707;51.158;17.124;2022-07-30T05:44:59;5.15;;;2.12;;
33347;SDS011;19707;51.158;17.124;2022-07-30T05:48:01;2.55;;;1.95;;
33347;SDS011;19707;51.158;17.124;2022-07-30T05:51:03;5.10;;;2.20;;
33347;SDS011;19707;51.158;17.124;2022-07-30T05:54:06;6.17;;;1.92;;
33347;SDS011;19707;51.158;17.124;2022-07-30T05:57:08;4.97;;;1.90;;
33347;SDS011;19707;51.158;17.124;2022-07-30T06:00:10;4.67;;;2.00;;
33347;SDS011;19707;51.158;17.124;2022-07-30T06:03:14;3.05;;;2.15;;
33347;SDS011;19707;51.158;17.124;2022-07-30T06:06:15;7.95;;;2.42;;
33347;SDS011;19707;51.158;17.124;2022-07-30T06:09:18;8.20;;;2.25;;
33347;SDS011;19707;51.158;17.124;2022-07-30T06:12:20;6.85;;;2.30;;
33347;SDS011;19707;51.158;17.124;2022-07-30T06:15:22;5.33;;;2.17;;
33347;SDS011;19707;51.158;17.124;2022-07-30T06:18:25;5.05;;;2.42;;
33347;SDS011;19707;51.158;17.124;2022-07-30T06:21:29;3.55;;;1.90;;
33347;SDS011;19707;51.158;17.124;2022-07-30T06:24:31;4.90;;;2.08;;
33347;SDS011;19707;51.158;17.124;2022-07-30T06:27:33;4.53;;;2.30;;
33347;SDS011;19707;51.158;17.124;2022-07-30T06:30:35;8.15;;;2.08;;
33347;SDS011;19707;51.158;17.124;2022-07-30T06:33:37;5.78;;;2.42;;
33347;SDS011;19707;51.158;17.124;2022-07-30T06:36:39;7.53;;;2.58;;
33347;SDS011;19707;51.158;17.124;2022-07-30T06:39:41;2.47;;;2.00;;
33347;SDS011;19707;51.158;17.124;2022-07-30T06:42:43;5.00;;;2.20;;
33347;SDS011;19707;51.158;17.124;2022-07-30T06:45:45;6.40;;;2.40;;
33347;SDS011;19707;51.158;17.124;2022-07-30T06:48:47;2.85;;;2.20;;
33347;SDS011;19707;51.158;17.124;2022-07-30T06:51:50;5.40;;;2.15;;
33347;SDS011;19707;51.158;17.124;2022-07-30T06:54:51;6.90;;;1.80;;
33347;SDS011;19707;51.158;17.124;2022-07-30T06:57:53;6.92;;;2.72;;
33347;SDS011;19707;51.158;17.124;2022-07-30T07:00:54;6.50;;;2.10;;
33347;SDS011;19707;51.158;17.124;2022-07-30T07:03:56;3.98;;;2.10;;
33347;SDS011;19707;51.158;17.124;2022-07-30T07:06:57;5.67;;;2.02;;
33347;SDS011;19707;51.158;17.124;2022-07-30T07:09:59;6.80;;;2.47;;
33347;SDS011;19707;51.158;17.124;2022-07-30T07:13:00;3.33;;;2.40;;
33347;SDS011;19707;51.158;17.124;2022-07-30T07:16:02;7.25;;;2.08;;
33347;SDS011;19707;51.158;17.124;2022-07-30T07:19:06;2.47;;;1.98;;
33347;SDS011;19707;51.158;17.124;2022-07-30T07:22:07;3.65;;;2.08;;
33347;SDS011;19707;51.158;17.124;2022-07-30T07:25:09;5.15;;;2.33;;
33347;SDS011;19707;51.158;17.124;2022-07-30T07:28:12;8.55;;;4.25;;
33347;SDS011;19707;51.158;17.124;2022-07-30T07:31:13;2.98;;;2.33;;
33347;SDS011;19707;51.158;17.124;2022-07-30T07:34:15;7.85;;;2.40;;
33347;SDS011;19707;51.158;17.124;2022-07-30T07:37:16;7.70;;;2.80;;
33347;SDS011;19707;51.158;17.124;2022-07-30T07:40:18;6.62;;;2.60;;
33347;SDS011;19707;51.158;17.124;2022-07-30T07:43:20;5.08;;;2.40;;
33347;SDS011;19707;51.158;17.124;2022-07-30T07:46:23;6.28;;;2.70;;
33347;SDS011;19707;51.158;17.124;2022-07-30T07:49:24;11.53;;;2.52;;
33347;SDS011;19707;51.158;17.124;2022-07-30T07:52:26;4.55;;;2.30;;
33347;SDS011;19707;51.158;17.124;2022-07-30T07:55:28;3.98;;;2.22;;
33347;SDS011;19707;51.158;17.124;2022-07-30T07:58:31;4.15;;;2.30;;
33347;SDS011;19707;51.158;17.124;2022-07-30T08:01:32;5.90;;;3.15;;
33347;SDS011;19707;51.158;17.124;2022-07-30T08:04:34;4.22;;;2.50;;
33347;SDS011;19707;51.158;17.124;2022-07-30T08:07:35;6.00;;;2.30;;
33347;SDS011;19707;51.158;17.124;2022-07-30T08:10:37;3.62;;;2.30;;
33347;SDS011;19707;51.158;17.124;2022-07-30T08:13:41;3.30;;;2.03;;
33347;SDS011;19707;51.158;17.124;2022-07-30T08:16:43;2.62;;;2.30;;
33347;SDS011;19707;51.158;17.124;2022-07-30T08:19:45;3.72;;;2.55;;
33347;SDS011;19707;51.158;17.124;2022-07-30T08:22:46;3.90;;;2.62;;
33347;SDS011;19707;51.158;17.124;2022-07-30T08:25:48;5.42;;;3.08;;
33347;SDS011;19707;51.158;17.124;2022-07-30T08:28:50;4.35;;;2.25;;
33347;SDS011;19707;51.158;17.124;2022-07-30T08:31:52;4.28;;;2.70;;
33347;SDS011;19707;51.158;17.124;2022-07-30T08:34:53;3.33;;;2.25;;
33347;SDS011;19707;51.158;17.124;2022-07-30T08:37:55;3.17;;;2.25;;
33347;SDS011;19707;51.158;17.124;2022-07-30T08:40:57;4.62;;;2.08;;
33347;SDS011;19707;51.158;17.124;2022-07-30T08:43:59;2.75;;;2.20;;
33347;SDS011;19707;51.158;17.124;2022-07-30T08:47:04;4.45;;;2.37;;
33347;SDS011;19707;51.158;17.124;2022-07-30T08:50:06;5.92;;;2.37;;
33347;SDS011;19707;51.158;17.124;2022-07-30T08:53:09;6.00;;;2.10;;
33347;SDS011;19707;51.158;17.124;2022-07-30T08:56:10;3.67;;;2.47;;
33347;SDS011;19707;51.158;17.124;2022-07-30T08:59:12;4.92;;;2.30;;
33347;SDS011;19707;51.158;17.124;2022-07-30T09:02:13;3.85;;;2.40;;
33347;SDS011;19707;51.158;17.124;2022-07-30T09:05:15;9.15;;;2.55;;
33347;SDS011;19707;51.158;17.124;2022-07-30T09:08:17;6.17;;;2.60;;
33347;SDS011;19707;51.158;17.124;2022-07-30T09:11:19;4.35;;;2.45;;
33347;SDS011;19707;51.158;17.124;2022-07-30T09:14:21;5.70;;;2.52;;
33347;SDS011;19707;51.158;17.124;2022-07-30T09:17:23;7.12;;;2.35;;
33347;SDS011;19707;51.158;17.124;2022-07-30T09:20:31;4.03;;;2.55;;
33347;SDS011;19707;51.158;17.124;2022-07-30T09:23:32;6.35;;;2.40;;
33347;SDS011;19707;51.158;17.124;2022-07-30T09:26:50;2.62;;;2.08;;
33347;SDS011;19707;51.158;17.124;2022-07-30T09:29:56;4.35;;;2.72;;
33347;SDS011;19707;51.158;17.124;2022-07-30T09:32:59;4.67;;;2.50;;
33347;SDS011;19707;51.158;17.124;2022-07-30T09:36:01;5.53;;;2.67;;
33347;SDS011;19707;51.158;17.124;2022-07-30T09:39:12;9.78;;;3.00;;
33347;SDS011;19707;51.158;17.124;2022-07-30T09:42:42;3.67;;;2.65;;
33347;SDS011;19707;51.158;17.124;2022-07-30T09:45:50;5.05;;;2.40;;
33347;SDS011;19707;51.158;17.124;2022-07-30T09:48:56;4.47;;;3.17;;
33347;SDS011;19707;51.158;17.124;2022-07-30T09:52:02;7.92;;;2.05;;
33347;SDS011;19707;51.158;17.124;2022-07-30T09:55:04;7.53;;;2.40;;
33347;SDS011;19707;51.158;17.124;2022-07-30T09:58:07;4.78;;;2.77;;
33347;SDS011;19707;51.158;17.124;2022-07-30T10:01:14;6.40;;;2.62;;
33347;SDS011;19707;51.158;17.124;2022-07-30T10:04:37;3.45;;;2.70;;
33347;SDS011;19707;51.158;17.124;2022-07-30T10:07:31;8.03;;;2.80;;
33347;SDS011;19707;51.158;17.124;2022-07-30T10:10:33;3.22;;;2.92;;
33347;SDS011;19707;51.158;17.124;2022-07-30T10:13:36;6.58;;;3.10;;
33347;SDS011;19707;51.158;17.124;2022-07-30T10:16:38;6.35;;;3.08;;
33347;SDS011;19707;51.158;17.124;2022-07-30T10:19:40;6.95;;;3.20;;
33347;SDS011;19707;51.158;17.124;2022-07-30T10:22:42;3.35;;;2.85;;
33347;SDS011;19707;51.158;17.124;2022-07-30T10:25:44;3.08;;;2.77;;
33347;SDS011;19707;51.158;17.124;2022-07-30T10:28:47;3.80;;;3.20;;
33347;SDS011;19707;51.158;17.124;2022-07-30T10:31:49;7.15;;;3.40;;
33347;SDS011;19707;51.158;17.124;2022-07-30T10:34:51;6.37;;;3.40;;
33347;SDS011;19707;51.158;17.124;2022-07-30T10:37:54;5.17;;;3.20;;
33347;SDS011;19707;51.158;17.124;2022-07-30T10:48:22;6.27;;;3.93;;
33347;SDS011;19707;51.158;17.124;2022-07-30T10:51:41;7.35;;;4.30;;
33347;SDS011;19707;51.158;17.124;2022-07-30T10:54:45;7.92;;;4.78;;
33347;SDS011;19707;51.158;17.124;2022-07-30T10:57:55;6.10;;;4.70;;
33347;SDS011;19707;51.158;17.124;2022-07-30T11:01:09;13.95;;;5.50;;
33347;SDS011;19707;51.158;17.124;2022-07-30T11:04:26;6.65;;;4.47;;
33347;SDS011;19707;51.158;17.124;2022-07-30T11:07:29;6.42;;;4.47;;
33347;SDS011;19707;51.158;17.124;2022-07-30T11:16:57;7.67;;;4.83;;
33347;SDS011;19707;51.158;17.124;2022-07-30T11:23:55;6.85;;;4.78;;
33347;SDS011;19707;51.158;17.124;2022-07-30T11:29:50;7.15;;;4.70;;
33347;SDS011;19707;51.158;17.124;2022-07-30T11:32:56;7.87;;;4.47;;
33347;SDS011;19707;51.158;17.124;2022-07-30T11:36:11;9.58;;;4.55;;
33347;SDS011;19707;51.158;17.124;2022-07-30T11:39:12;7.72;;;4.95;;
33347;SDS011;19707;51.158;17.124;2022-07-30T11:42:23;7.97;;;4.85;;
33347;SDS011;19707;51.158;17.124;2022-07-30T11:45:28;7.85;;;5.10;;
33347;SDS011;19707;51.158;17.124;2022-07-30T11:48:30;6.87;;;5.08;;
33347;SDS011;19707;51.158;17.124;2022-07-30T11:51:46;9.28;;;4.65;;
33347;SDS011;19707;51.158;17.124;2022-07-30T11:54:53;9.20;;;5.58;;
33347;SDS011;19707;51.158;17.124;2022-07-30T12:01:01;9.93;;;5.45;;
33347;SDS011;19707;51.158;17.124;2022-07-30T12:07:09;7.25;;;6.03;;
33347;SDS011;19707;51.158;17.124;2022-07-30T12:10:11;6.22;;;5.62;;
33347;SDS011;19707;51.158;17.124;2022-07-30T12:13:15;8.33;;;5.83;;
33347;SDS011;19707;51.158;17.124;2022-07-30T12:16:19;8.77;;;6.17;;
33347;SDS011;19707;51.158;17.124;2022-07-30T12:19:21;7.30;;;6.37;;
33347;SDS011;19707;51.158;17.124;2022-07-30T12:22:22;6.53;;;5.28;;
33347;SDS011;19707;51.158;17.124;2022-07-30T12:25:24;9.33;;;6.05;;
33347;SDS011;19707;51.158;17.124;2022-07-30T12:28:27;7.67;;;6.10;;
33347;SDS011;19707;51.158;17.124;2022-07-30T12:31:33;9.78;;;6.45;;
33347;SDS011;19707;51.158;17.124;2022-07-30T12:34:35;10.23;;;6.90;;
33347;SDS011;19707;51.158;17.124;2022-07-30T12:37:39;9.95;;;6.87;;
33347;SDS011;19707;51.158;17.124;2022-07-30T12:41:00;11.28;;;7.60;;
33347;SDS011;19707;51.158;17.124;2022-07-30T12:44:07;8.65;;;7.75;;
33347;SDS011;19707;51.158;17.124;2022-07-30T12:47:23;9.80;;;8.58;;
33347;SDS011;19707;51.158;17.124;2022-07-30T12:50:26;9.43;;;7.53;;
33347;SDS011;19707;51.158;17.124;2022-07-30T12:53:29;11.53;;;7.90;;
33347;SDS011;19707;51.158;17.124;2022-07-30T12:56:30;9.88;;;6.97;;
33347;SDS011;19707;51.158;17.124;2022-07-30T12:59:32;10.60;;;8.40;;
33347;SDS011;19707;51.158;17.124;2022-07-30T13:02:37;10.15;;;8.23;;
33347;SDS011;19707;51.158;17.124;2022-07-30T13:05:43;10.00;;;7.80;;
33347;SDS011;19707;51.158;17.124;2022-07-30T13:08:53;9.10;;;7.65;;
33347;SDS011;19707;51.158;17.124;2022-07-30T13:11:59;11.22;;;8.78;;
33347;SDS011;19707;51.158;17.124;2022-07-30T13:15:01;19.62;;;8.83;;
33347;SDS011;19707;51.158;17.124;2022-07-30T13:18:02;12.20;;;8.93;;
33347;SDS011;19707;51.158;17.124;2022-07-30T13:21:05;11.20;;;8.83;;
33347;SDS011;19707;51.158;17.124;2022-07-30T13:24:09;9.23;;;8.30;;
33347;SDS011;19707;51.158;17.124;2022-07-30T13:27:12;12.43;;;9.78;;
33347;SDS011;19707;51.158;17.124;2022-07-30T13:30:15;17.53;;;10.00;;
33347;SDS011;19707;51.158;17.124;2022-07-30T13:33:18;30.43;;;10.00;;
33347;SDS011;19707;51.158;17.124;2022-07-30T13:36:19;16.30;;;9.35;;
33347;SDS011;19707;51.158;17.124;2022-07-30T13:39:21;17.25;;;9.80;;
33347;SDS011;19707;51.158;17.124;2022-07-30T13:42:23;15.30;;;9.90;;
33347;SDS011;19707;51.158;17.124;2022-07-30T13:45:25;31.93;;;16.93;;
33347;SDS011;19707;51.158;17.124;2022-07-30T13:48:27;17.87;;;11.68;;
33347;SDS011;19707;51.158;17.124;2022-07-30T13:51:29;24.20;;;10.68;;
33347;SDS011;19707;51.158;17.124;2022-07-30T13:54:31;12.20;;;10.43;;
33347;SDS011;19707;51.158;17.124;2022-07-30T13:57:32;16.12;;;10.68;;
33347;SDS011;19707;51.158;17.124;2022-07-30T14:00:34;31.65;;;11.40;;
33347;SDS011;19707;51.158;17.124;2022-07-30T14:03:36;16.25;;;13.22;;
33347;SDS011;19707;51.158;17.124;2022-07-30T14:06:38;17.32;;;11.55;;
33347;SDS011;19707;51.158;17.124;2022-07-30T14:09:40;14.18;;;11.97;;
33347;SDS011;19707;51.158;17.124;2022-07-30T14:12:41;20.17;;;13.70;;
33347;SDS011;19707;51.158;17.124;2022-07-30T14:15:47;29.63;;;12.50;;
33347;SDS011;19707;51.158;17.124;2022-07-30T14:18:50;18.00;;;10.25;;
33347;SDS011;19707;51.158;17.124;2022-07-30T14:21:52;18.42;;;9.53;;
33347;SDS011;19707;51.158;17.124;2022-07-30T14:24:54;37.85;;;10.65;;
33347;SDS011;19707;51.158;17.124;2022-07-30T14:27:58;29.07;;;10.32;;
33347;SDS011;19707;51.158;17.124;2022-07-30T14:31:01;40.73;;;11.28;;
33347;SDS011;19707;51.158;17.124;2022-07-30T14:34:06;31.62;;;11.38;;
33347;SDS011;19707;51.158;17.124;2022-07-30T14:37:08;21.35;;;10.75;;
33347;SDS011;19707;51.158;17.124;2022-07-30T14:40:10;20.17;;;10.28;;
33347;SDS011;19707;51.158;17.124;2022-07-30T14:43:12;14.60;;;9.45;;
33347;SDS011;19707;51.158;17.124;2022-07-30T14:46:16;23.10;;;9.38;;
33347;SDS011;19707;51.158;17.124;2022-07-30T14:49:19;12.20;;;7.97;;
33347;SDS011;19707;51.158;17.124;2022-07-30T14:52:21;16.95;;;6.85;;
33347;SDS011;19707;51.158;17.124;2022-07-30T14:55:22;21.15;;;6.97;;
33347;SDS011;19707;51.158;17.124;2022-07-30T14:58:24;16.62;;;7.33;;
33347;SDS011;19707;51.158;17.124;2022-07-30T15:01:25;19.12;;;7.15;;
33347;SDS011;19707;51.158;17.124;2022-07-30T15:04:27;26.60;;;8.13;;
33347;SDS011;19707;51.158;17.124;2022-07-30T15:07:28;14.47;;;7.95;;
33347;SDS011;19707;51.158;17.124;2022-07-30T15:10:30;21.60;;;7.55;;
33347;SDS011;19707;51.158;17.124;2022-07-30T15:13:32;16.25;;;6.60;;
33347;SDS011;19707;51.158;17.124;2022-07-30T15:16:34;15.40;;;6.42;;
33347;SDS011;19707;51.158;17.124;2022-07-30T15:19:36;10.68;;;6.40;;
33347;SDS011;19707;51.158;17.124;2022-07-30T15:22:37;10.48;;;6.53;;
33347;SDS011;19707;51.158;17.124;2022-07-30T15:25:42;19.67;;;9.10;;
33347;SDS011;19707;51.158;17.124;2022-07-30T15:28:43;11.30;;;6.20;;
33347;SDS011;19707;51.158;17.124;2022-07-30T15:31:45;8.95;;;5.97;;
33347;SDS011;19707;51.158;17.124;2022-07-30T15:34:46;7.20;;;5.95;;
33347;SDS011;19707;51.158;17.124;2022-07-30T15:37:47;6.12;;;5.53;;
33347;SDS011;19707;51.158;17.124;2022-07-30T15:40:49;8.95;;;6.15;;
33347;SDS011;19707;51.158;17.124;2022-07-30T15:43:51;7.97;;;5.45;;
33347;SDS011;19707;51.158;17.124;2022-07-30T15:46:52;11.63;;;6.03;;
33347;SDS011;19707;51.158;17.124;2022-07-30T15:49:56;8.53;;;4.72;;
33347;SDS011;19707;51.158;17.124;2022-07-30T15:52:57;13.13;;;5.37;;
33347;SDS011;19707;51.158;17.124;2022-07-30T15:55:59;14.28;;;5.03;;
33347;SDS011;19707;51.158;17.124;2022-07-30T15:59:00;11.30;;;4.67;;
33347;SDS011;19707;51.158;17.124;2022-07-30T16:02:02;5.30;;;4.05;;
33347;SDS011;19707;51.158;17.124;2022-07-30T16:05:04;6.22;;;3.95;;
33347;SDS011;19707;51.158;17.124;2022-07-30T16:08:06;6.60;;;3.80;;
33347;SDS011;19707;51.158;17.124;2022-07-30T16:11:08;39.20;;;4.83;;
33347;SDS011;19707;51.158;17.124;2022-07-30T16:14:09;25.77;;;4.28;;
33347;SDS011;19707;51.158;17.124;2022-07-30T16:17:11;19.87;;;5.47;;
33347;SDS011;19707;51.158;17.124;2022-07-30T16:20:13;15.48;;;4.35;;
33347;SDS011;19707;51.158;17.124;2022-07-30T16:23:15;7.70;;;4.47;;
33347;SDS011;19707;51.158;17.124;2022-07-30T16:26:21;7.45;;;4.05;;
33347;SDS011;19707;51.158;17.124;2022-07-30T16:29:21;8.68;;;3.83;;
33347;SDS011;19707;51.158;17.124;2022-07-30T16:32:22;6.40;;;3.77;;
33347;SDS011;19707;51.158;17.124;2022-07-30T16:35:24;4.40;;;4.05;;
33347;SDS011;19707;51.158;17.124;2022-07-30T16:38:25;9.18;;;4.58;;
33347;SDS011;19707;51.158;17.124;2022-07-30T16:41:26;4.70;;;4.30;;
33347;SDS011;19707;51.158;17.124;2022-07-30T16:44:28;6.87;;;4.95;;
33347;SDS011;19707;51.158;17.124;2022-07-30T16:47:31;7.87;;;5.22;;
33347;SDS011;19707;51.158;17.124;2022-07-30T16:50:33;5.10;;;4.37;;
33347;SDS011;19707;51.158;17.124;2022-07-30T16:53:35;11.15;;;5.10;;
33347;SDS011;19707;51.158;17.124;2022-07-30T16:56:38;5.00;;;4.58;;
33347;SDS011;19707;51.158;17.124;2022-07-30T16:59:40;6.70;;;4.58;;
33347;SDS011;19707;51.158;17.124;2022-07-30T17:02:42;12.03;;;4.95;;
33347;SDS011;19707;51.158;17.124;2022-07-30T17:05:44;6.25;;;5.28;;
33347;SDS011;19707;51.158;17.124;2022-07-30T17:08:45;8.85;;;5.25;;
33347;SDS011;19707;51.158;17.124;2022-07-30T17:11:46;6.12;;;4.35;;
33347;SDS011;19707;51.158;17.124;2022-07-30T17:14:48;7.12;;;4.25;;
33347;SDS011;19707;51.158;17.124;2022-07-30T17:17:49;6.95;;;4.42;;
33347;SDS011;19707;51.158;17.124;2022-07-30T17:20:51;6.25;;;4.60;;
33347;SDS011;19707;51.158;17.124;2022-07-30T17:23:53;8.15;;;5.55;;
33347;SDS011;19707;51.158;17.124;2022-07-30T17:26:54;7.00;;;5.33;;
33347;SDS011;19707;51.158;17.124;2022-07-30T17:29:56;6.92;;;5.12;;
33347;SDS011;19707;51.158;17.124;2022-07-30T17:32:57;6.85;;;5.17;;
33347;SDS011;19707;51.158;17.124;2022-07-30T17:35:58;6.42;;;5.58;;
33347;SDS011;19707;51.158;17.124;2022-07-30T17:39:00;7.67;;;5.20;;
33347;SDS011;19707;51.158;17.124;2022-07-30T17:42:02;10.70;;;5.58;;
33347;SDS011;19707;51.158;17.124;2022-07-30T17:45:04;6.42;;;5.90;;
33347;SDS011;19707;51.158;17.124;2022-07-30T17:48:07;6.37;;;5.70;;
33347;SDS011;19707;51.158;17.124;2022-07-30T17:51:08;7.70;;;5.67;;
33347;SDS011;19707;51.158;17.124;2022-07-30T17:54:10;8.48;;;5.17;;
33347;SDS011;19707;51.158;17.124;2022-07-30T17:57:11;6.20;;;5.70;;
33347;SDS011;19707;51.158;17.124;2022-07-30T18:00:12;7.30;;;6.40;;
33347;SDS011;19707;51.158;17.124;2022-07-30T18:03:14;6.70;;;5.53;;
33347;SDS011;19707;51.158;17.124;2022-07-30T18:06:15;6.97;;;5.35;;
33347;SDS011;19707;51.158;17.124;2022-07-30T18:09:16;8.85;;;6.53;;
33347;SDS011;19707;51.158;17.124;2022-07-30T18:12:18;7.25;;;6.55;;
33347;SDS011;19707;51.158;17.124;2022-07-30T18:15:19;8.70;;;7.67;;
33347;SDS011;19707;51.158;17.124;2022-07-30T18:18:21;7.25;;;6.58;;
33347;SDS011;19707;51.158;17.124;2022-07-30T18:21:22;16.17;;;7.28;;
33347;SDS011;19707;51.158;17.124;2022-07-30T18:24:25;7.97;;;6.83;;
33347;SDS011;19707;51.158;17.124;2022-07-30T18:27:26;9.05;;;6.70;;
33347;SDS011;19707;51.158;17.124;2022-07-30T18:30:28;18.20;;;7.00;;
33347;SDS011;19707;51.158;17.124;2022-07-30T18:33:29;8.30;;;6.30;;
33347;SDS011;19707;51.158;17.124;2022-07-30T18:36:30;9.05;;;6.83;;
33347;SDS011;19707;51.158;17.124;2022-07-30T18:39:32;9.68;;;6.67;;
33347;SDS011;19707;51.158;17.124;2022-07-30T18:42:33;9.08;;;6.33;;